Time;durP1;ratioP1;P1;durP2;ratioP2;P2;SDS_P1;SDS_P2;PMS_P1;PMS_P2;Temp;Humidity;BMP_temperature;BMP_pressure;BME280_temperature;BME280_humidity;BME280_pressure;Samples;Min_cycle;Max_cycle;Signal;HPM_P1;HPM_P2
2022/04/14 00:00:23;;;;;;;17.20;12.43;;;;;;;;;;5044986;28;20395;-81
2022/04/14 00:02:49;;;;;;;13.73;11.83;;;;;;;;;;5043598;28;20406;-81
2022/04/14 00:05:15;;;;;;;15.70;13.10;;;;;;;;;;5043582;28;20477;-81
2022/04/14 00:07:41;;;;;;;18.77;13.47;;;;;;;;;;5046642;28;20402;-81
2022/04/14 00:10:08;;;;;;;15.70;12.63;;;;;;;;;;5051053;28;20410;-81
2022/04/14 00:12:34;;;;;;;16.70;13.43;;;;;;;;;;5044029;28;20823;-82
2022/04/14 00:15:00;;;;;;;22.90;14.07;;;;;;;;;;5043581;28;20783;-82
2022/04/14 00:17:28;;;;;;;19.23;13.83;;;;;;;;;;5044082;28;20417;-81
2022/04/14 00:19:54;;;;;;;15.07;12.80;;;;;;;;;;5043451;28;20422;-80
2022/04/14 00:22:20;;;;;;;19.23;12.13;;;;;;;;;;5042969;28;20809;-81
2022/04/14 00:24:46;;;;;;;17.90;12.50;;;;;;;;;;5043460;28;20512;-82
2022/04/14 00:27:12;;;;;;;22.00;13.40;;;;;;;;;;5043423;28;20425;-81
2022/04/14 00:29:38;;;;;;;18.43;13.47;;;;;;;;;;5043380;28;20419;-82
2022/04/14 00:32:04;;;;;;;18.67;13.33;;;;;;;;;;5043488;28;20413;-81
2022/04/14 00:34:30;;;;;;;14.93;12.20;;;;;;;;;;5043091;28;20481;-82
2022/04/14 00:36:56;;;;;;;16.43;12.37;;;;;;;;;;5043322;28;20433;-82
2022/04/14 00:39:22;;;;;;;18.17;13.73;;;;;;;;;;5043362;28;20480;-81
2022/04/14 00:41:48;;;;;;;17.60;13.47;;;;;;;;;;5043547;28;20422;-81
2022/04/14 00:44:14;;;;;;;18.20;12.73;;;;;;;;;;5043567;28;20488;-81
2022/04/14 00:46:40;;;;;;;18.57;12.70;;;;;;;;;;5043537;28;20838;-81
2022/04/14 00:49:06;;;;;;;21.03;12.90;;;;;;;;;;5042575;28;20434;-81
2022/04/14 00:51:32;;;;;;;15.70;11.87;;;;;;;;;;5043292;28;20422;-81
2022/04/14 00:53:59;;;;;;;14.93;12.70;;;;;;;;;;5043119;28;20406;-81
2022/04/14 00:56:25;;;;;;;13.13;11.50;;;;;;;;;;5042878;28;20407;-81
2022/04/14 00:58:51;;;;;;;17.90;13.77;;;;;;;;;;5042529;28;20864;-81
2022/04/14 01:01:17;;;;;;;17.63;12.70;;;;;;;;;;5042639;28;20494;-81
2022/04/14 01:03:45;;;;;;;18.40;14.20;;;;;;;;;;5042744;28;20410;-81
2022/04/14 01:06:14;;;;;;;18.70;13.97;;;;;;;;;;5043090;28;20863;-81
2022/04/14 01:08:40;;;;;;;14.47;11.93;;;;;;;;;;5042887;28;20521;-81
2022/04/14 01:11:07;;;;;;;15.33;12.80;;;;;;;;;;5025222;28;20411;-81
2022/04/14 01:13:33;;;;;;;14.13;12.43;;;;;;;;;;5043142;28;20485;-81
2022/04/14 01:15:59;;;;;;;15.57;11.93;;;;;;;;;;5042572;28;20411;-81
2022/04/14 01:18:26;;;;;;;18.87;13.60;;;;;;;;;;5042042;28;20938;-81
2022/04/14 01:20:52;;;;;;;17.73;13.50;;;;;;;;;;5044774;28;20438;-80
2022/04/14 01:23:29;;;;;;;20.23;13.20;;;;;;;;;;5050387;28;20898;-81
2022/04/14 01:25:55;;;;;;;16.03;13.10;;;;;;;;;;5032306;28;20918;-81
2022/04/14 01:28:21;;;;;;;17.60;14.80;;;;;;;;;;5052110;28;20430;-80
2022/04/14 01:30:47;;;;;;;17.67;12.93;;;;;;;;;;5034709;28;20426;-80
2022/04/14 01:33:13;;;;;;;19.07;15.13;;;;;;;;;;5051795;28;20483;-81
2022/04/14 01:35:39;;;;;;;18.57;14.50;;;;;;;;;;5042671;28;20410;-81
2022/04/14 01:38:06;;;;;;;19.17;13.77;;;;;;;;;;5042089;28;20868;-81
2022/04/14 01:40:32;;;;;;;18.20;14.10;;;;;;;;;;5041343;28;20426;-81
2022/04/14 01:42:58;;;;;;;17.90;12.67;;;;;;;;;;5042235;28;20421;-82
2022/04/14 01:45:24;;;;;;;19.80;12.07;;;;;;;;;;5041643;28;20470;-81
2022/04/14 01:47:50;;;;;;;18.23;13.50;;;;;;;;;;5023567;28;20411;-81
2022/04/14 01:50:18;;;;;;;15.60;12.30;;;;;;;;;;5041458;28;20751;-81
2022/04/14 01:52:44;;;;;;;15.67;12.03;;;;;;;;;;5041432;28;20413;-81
2022/04/14 01:55:11;;;;;;;19.00;13.57;;;;;;;;;;5041131;28;20410;-81
2022/04/14 01:57:37;;;;;;;13.40;12.00;;;;;;;;;;5041437;28;20420;-81
2022/04/14 02:00:06;;;;;;;17.07;13.07;;;;;;;;;;5023462;28;20438;-81
2022/04/14 02:02:32;;;;;;;15.40;13.57;;;;;;;;;;5041309;28;20825;-81
2022/04/14 02:04:58;;;;;;;17.53;13.50;;;;;;;;;;5041599;28;20442;-81
2022/04/14 02:07:24;;;;;;;17.40;13.63;;;;;;;;;;5040810;28;20410;-81
2022/04/14 02:09:50;;;;;;;15.50;12.40;;;;;;;;;;5040349;28;20425;-81
2022/04/14 02:12:16;;;;;;;15.70;13.13;;;;;;;;;;5042078;28;20953;-81
2022/04/14 02:14:43;;;;;;;22.30;13.83;;;;;;;;;;5024214;28;20790;-81
2022/04/14 02:17:09;;;;;;;15.57;13.57;;;;;;;;;;5048062;28;20433;-81
2022/04/14 02:19:35;;;;;;;20.87;13.90;;;;;;;;;;5046549;28;20441;-81
2022/04/14 02:22:01;;;;;;;18.90;13.60;;;;;;;;;;5041311;28;20445;-80
2022/04/14 02:24:28;;;;;;;17.97;13.27;;;;;;;;;;5036353;28;20449;-80
2022/04/14 02:26:54;;;;;;;16.53;12.97;;;;;;;;;;5018552;28;20438;-80
2022/04/14 02:29:20;;;;;;;18.47;13.97;;;;;;;;;;5036916;28;20441;-81
2022/04/14 02:31:46;;;;;;;18.33;12.40;;;;;;;;;;5037649;28;20403;-81
2022/04/14 02:34:12;;;;;;;16.27;12.20;;;;;;;;;;5038496;28;20510;-80
2022/04/14 02:36:39;;;;;;;15.27;13.07;;;;;;;;;;5040572;28;20399;-81
2022/04/14 02:39:05;;;;;;;18.07;13.10;;;;;;;;;;5038242;28;20541;-81
2022/04/14 02:41:31;;;;;;;17.50;13.50;;;;;;;;;;5039523;28;20418;-81
2022/04/14 02:43:57;;;;;;;16.10;12.67;;;;;;;;;;5039374;28;20394;-81
2022/04/14 02:46:23;;;;;;;18.23;12.73;;;;;;;;;;5040569;28;20494;-81
2022/04/14 02:48:49;;;;;;;14.27;12.43;;;;;;;;;;5039790;28;20433;-81
2022/04/14 02:51:15;;;;;;;15.00;12.50;;;;;;;;;;5039075;28;20398;-81
2022/04/14 02:53:41;;;;;;;15.97;11.83;;;;;;;;;;5040643;28;20410;-81
2022/04/14 02:56:07;;;;;;;14.50;11.93;;;;;;;;;;5039766;28;20402;-81
2022/04/14 02:58:34;;;;;;;19.73;12.50;;;;;;;;;;5040507;28;20422;-81
2022/04/14 03:01:00;;;;;;;17.30;12.70;;;;;;;;;;5039227;28;20407;-81
2022/04/14 03:03:28;;;;;;;13.67;10.90;;;;;;;;;;5040119;28;20407;-81
2022/04/14 03:05:54;;;;;;;14.37;11.27;;;;;;;;;;5040005;28;20456;-81
2022/04/14 03:08:20;;;;;;;17.70;11.90;;;;;;;;;;5041105;28;20425;-81
2022/04/14 03:10:46;;;;;;;14.83;11.83;;;;;;;;;;5040754;28;20403;-81
2022/04/14 03:13:12;;;;;;;13.50;11.20;;;;;;;;;;5040149;28;20778;-81
2022/04/14 03:15:38;;;;;;;14.00;11.03;;;;;;;;;;5039670;28;20410;-80
2022/04/14 03:18:06;;;;;;;14.37;11.50;;;;;;;;;;5040326;28;20456;-81
2022/04/14 03:20:32;;;;;;;17.27;12.93;;;;;;;;;;5041019;28;20410;-81
2022/04/14 03:22:58;;;;;;;13.83;11.43;;;;;;;;;;5047637;28;20418;-80
2022/04/14 03:25:25;;;;;;;16.27;11.80;;;;;;;;;;5048966;28;20449;-81
2022/04/14 03:27:51;;;;;;;16.90;13.00;;;;;;;;;;5048296;28;20413;-81
2022/04/14 03:30:17;;;;;;;19.60;12.30;;;;;;;;;;5048665;28;20407;-81
2022/04/14 03:32:44;;;;;;;18.30;12.23;;;;;;;;;;5049865;28;20407;-80
2022/04/14 03:35:13;;;;;;;16.37;12.53;;;;;;;;;;5049421;28;20398;-81
2022/04/14 03:37:40;;;;;;;15.40;12.93;;;;;;;;;;5047689;28;20419;-81
2022/04/14 03:40:07;;;;;;;23.77;13.87;;;;;;;;;;5048513;28;20419;-81
2022/04/14 03:42:33;;;;;;;17.00;12.43;;;;;;;;;;5049493;28;20402;-81
2022/04/14 03:45:00;;;;;;;14.80;12.17;;;;;;;;;;5027498;28;20461;-81
2022/04/14 03:47:26;;;;;;;19.20;13.30;;;;;;;;;;5039149;28;20953;-82
2022/04/14 03:49:52;;;;;;;18.93;12.30;;;;;;;;;;5040792;28;20883;-81
2022/04/14 03:52:19;;;;;;;14.00;11.37;;;;;;;;;;5040390;28;20774;-81
2022/04/14 03:54:45;;;;;;;15.53;12.33;;;;;;;;;;5023005;28;20473;-81
2022/04/14 03:57:11;;;;;;;27.83;15.30;;;;;;;;;;5040271;28;20463;-81
2022/04/14 03:59:37;;;;;;;16.43;13.03;;;;;;;;;;5040221;28;20431;-81
2022/04/14 04:02:04;;;;;;;16.93;13.10;;;;;;;;;;5040258;28;20410;-81
2022/04/14 04:04:31;;;;;;;22.13;13.40;;;;;;;;;;5022265;28;20453;-79
2022/04/14 04:06:58;;;;;;;14.93;12.70;;;;;;;;;;5039737;28;20403;-81
2022/04/14 04:09:24;;;;;;;16.43;13.03;;;;;;;;;;5039887;28;20422;-81
2022/04/14 04:11:50;;;;;;;14.23;12.13;;;;;;;;;;5040521;28;20405;-81
2022/04/14 04:14:16;;;;;;;19.70;12.43;;;;;;;;;;5040189;28;20438;-81
2022/04/14 04:16:43;;;;;;;18.40;12.10;;;;;;;;;;5039747;28;20406;-81
2022/04/14 04:19:09;;;;;;;16.40;12.80;;;;;;;;;;5039624;28;20446;-81
2022/04/14 04:21:35;;;;;;;16.27;13.20;;;;;;;;;;5039448;28;20429;-81
2022/04/14 04:24:01;;;;;;;18.87;13.10;;;;;;;;;;5039668;28;20758;-81
2022/04/14 04:26:27;;;;;;;19.30;14.07;;;;;;;;;;5022210;28;20406;-81
2022/04/14 04:28:53;;;;;;;17.97;13.30;;;;;;;;;;5023032;28;20488;-80
2022/04/14 04:31:19;;;;;;;14.83;12.80;;;;;;;;;;5040989;28;20407;-81
2022/04/14 04:33:45;;;;;;;19.63;13.60;;;;;;;;;;5046320;28;20413;-81
2022/04/14 04:36:12;;;;;;;18.80;13.43;;;;;;;;;;5046661;28;20461;-81
2022/04/14 04:38:38;;;;;;;17.30;13.00;;;;;;;;;;5026767;28;20454;-81
2022/04/14 04:41:05;;;;;;;19.53;13.17;;;;;;;;;;5043304;28;20410;-81
2022/04/14 04:43:31;;;;;;;20.63;12.07;;;;;;;;;;5043097;28;20472;-81
2022/04/14 04:45:57;;;;;;;18.20;12.40;;;;;;;;;;5043072;28;20461;-81
2022/04/14 04:48:23;;;;;;;16.40;12.70;;;;;;;;;;5043679;28;20498;-81
2022/04/14 04:50:49;;;;;;;16.47;11.90;;;;;;;;;;5043363;28;20402;-80
2022/04/14 04:53:15;;;;;;;20.20;13.77;;;;;;;;;;5043170;28;20407;-81
2022/04/14 04:55:41;;;;;;;15.43;12.43;;;;;;;;;;5024479;28;20415;-81
2022/04/14 04:58:07;;;;;;;22.20;12.60;;;;;;;;;;5042806;28;20427;-81
2022/04/14 05:00:33;;;;;;;15.13;12.30;;;;;;;;;;5043061;28;20774;-81
2022/04/14 05:02:59;;;;;;;18.33;12.37;;;;;;;;;;5042883;28;20774;-80
2022/04/14 05:05:25;;;;;;;15.00;13.27;;;;;;;;;;5024896;28;20446;-81
2022/04/14 05:07:52;;;;;;;18.97;15.30;;;;;;;;;;5035546;28;20415;-81
2022/04/14 05:10:18;;;;;;;17.30;12.83;;;;;;;;;;5022883;28;20811;-80
2022/04/14 05:12:44;;;;;;;14.80;12.80;;;;;;;;;;5020899;28;20414;-81
2022/04/14 05:15:10;;;;;;;15.10;12.60;;;;;;;;;;5022645;28;20426;-80
2022/04/14 05:17:36;;;;;;;17.98;11.98;;;;;;;;;;5030959;28;20848;-80
2022/04/14 05:20:03;;;;;;;14.13;12.20;;;;;;;;;;5020713;28;20700;-81
2022/04/14 05:22:29;;;;;;;14.60;12.10;;;;;;;;;;5020773;28;20458;-81
2022/04/14 05:24:55;;;;;;;17.17;11.93;;;;;;;;;;5025503;28;20464;-81
2022/04/14 05:27:21;;;;;;;16.00;12.07;;;;;;;;;;5029019;28;20175;-80
2022/04/14 05:29:47;;;;;;;17.90;11.93;;;;;;;;;;5022651;28;20431;-81
2022/04/14 05:32:13;;;;;;;11.40;10.20;;;;;;;;;;5040919;28;20402;-81
2022/04/14 05:34:39;;;;;;;13.97;12.00;;;;;;;;;;5041339;28;20414;-81
2022/04/14 05:37:05;;;;;;;14.30;10.20;;;;;;;;;;5040669;28;20418;-81
2022/04/14 05:39:31;;;;;;;13.90;10.80;;;;;;;;;;5041709;28;20470;-79
2022/04/14 05:41:57;;;;;;;14.90;10.67;;;;;;;;;;5033001;28;20510;-81
2022/04/14 05:44:23;;;;;;;15.02;10.30;;;;;;;;;;5025628;28;20434;-81
2022/04/14 05:46:49;;;;;;;15.10;10.80;;;;;;;;;;5035168;28;20203;-80
2022/04/14 05:49:15;;;;;;;14.87;12.83;;;;;;;;;;5037029;28;20449;-81
2022/04/14 05:51:42;;;;;;;20.03;12.77;;;;;;;;;;5041078;28;20557;-78
2022/04/14 05:54:08;;;;;;;17.60;13.20;;;;;;;;;;5038642;28;20422;-81
2022/04/14 05:56:34;;;;;;;14.30;11.03;;;;;;;;;;5019014;28;20430;-81
2022/04/14 05:59:00;;;;;;;13.43;11.33;;;;;;;;;;5021366;28;20449;-81
2022/04/14 06:01:30;;;;;;;17.30;11.80;;;;;;;;;;5040787;28;20414;-79
2022/04/14 06:03:56;;;;;;;12.90;10.87;;;;;;;;;;5037600;28;20426;-80
2022/04/14 06:06:22;;;;;;;13.73;10.77;;;;;;;;;;5040915;28;20527;-81
2022/04/14 06:08:48;;;;;;;18.17;12.40;;;;;;;;;;5021762;28;20427;-80
2022/04/14 06:11:14;;;;;;;15.17;10.53;;;;;;;;;;5022457;28;20419;-80
2022/04/14 06:13:40;;;;;;;12.10;10.50;;;;;;;;;;5021081;28;20458;-81
2022/04/14 06:16:06;;;;;;;13.87;10.43;;;;;;;;;;5021066;28;20425;-78
2022/04/14 06:18:32;;;;;;;17.38;11.27;;;;;;;;;;5022979;28;20815;-80
2022/04/14 06:20:58;;;;;;;15.33;11.30;;;;;;;;;;5035301;28;20163;-81
2022/04/14 06:23:24;;;;;;;14.10;10.53;;;;;;;;;;5022518;28;20837;-81
2022/04/14 06:25:50;;;;;;;13.98;11.18;;;;;;;;;;5023675;28;20485;-81
2022/04/14 06:28:17;;;;;;;14.07;11.27;;;;;;;;;;5021186;28;20283;-80
2022/04/14 06:30:44;;;;;;;17.30;10.17;;;;;;;;;;5020799;28;20772;-81
2022/04/14 06:33:10;;;;;;;13.33;11.20;;;;;;;;;;5020530;28;20415;-80
2022/04/14 06:35:36;;;;;;;11.77;9.87;;;;;;;;;;5021342;28;20447;-80
2022/04/14 06:38:02;;;;;;;14.20;9.97;;;;;;;;;;5020332;28;20481;-81
2022/04/14 06:40:28;;;;;;;16.00;11.10;;;;;;;;;;5021788;28;20418;-78
2022/04/14 06:42:54;;;;;;;12.50;8.83;;;;;;;;;;5029139;28;20426;-81
2022/04/14 06:45:20;;;;;;;14.67;9.47;;;;;;;;;;5036246;28;20458;-80
2022/04/14 06:47:46;;;;;;;10.87;9.47;;;;;;;;;;5023673;28;20400;-81
2022/04/14 06:50:13;;;;;;;14.27;9.23;;;;;;;;;;5006679;28;20509;-81
2022/04/14 06:52:39;;;;;;;14.10;9.60;;;;;;;;;;5039602;28;20398;-81
2022/04/14 06:55:06;;;;;;;16.90;9.77;;;;;;;;;;5038927;28;20460;-81
2022/04/14 06:57:32;;;;;;;15.43;10.37;;;;;;;;;;5039823;28;20445;-81
2022/04/14 06:59:58;;;;;;;12.50;8.87;;;;;;;;;;5035955;28;20438;-81
2022/04/14 07:02:24;;;;;;;11.53;8.30;;;;;;;;;;5036108;28;20529;-81
2022/04/14 07:04:51;;;;;;;11.10;8.70;;;;;;;;;;5038312;28;20489;-80
2022/04/14 07:07:17;;;;;;;11.37;9.13;;;;;;;;;;5040243;28;20418;-81
2022/04/14 07:09:43;;;;;;;13.37;9.10;;;;;;;;;;5034583;28;20446;-81
2022/04/14 07:12:10;;;;;;;14.73;10.77;;;;;;;;;;5025220;28;20916;-80
2022/04/14 07:14:38;;;;;;;19.70;9.90;;;;;;;;;;5020735;28;20418;-80
2022/04/14 07:17:05;;;;;;;11.30;9.47;;;;;;;;;;5035258;28;20465;-80
2022/04/14 07:19:31;;;;;;;14.80;10.13;;;;;;;;;;5038827;28;20430;-80
2022/04/14 07:21:57;;;;;;;17.40;10.90;;;;;;;;;;5020031;28;20427;-80
2022/04/14 07:24:23;;;;;;;17.73;10.40;;;;;;;;;;5020418;28;20454;-80
2022/04/14 07:26:49;;;;;;;15.20;9.73;;;;;;;;;;5031330;28;20433;-81
2022/04/14 07:29:15;;;;;;;13.60;10.20;;;;;;;;;;5031093;28;20438;-79
2022/04/14 07:31:42;;;;;;;13.23;9.50;;;;;;;;;;5024201;28;20422;-80
2022/04/14 07:34:10;;;;;;;13.70;9.70;;;;;;;;;;5027835;28;20449;-80
2022/04/14 07:36:36;;;;;;;15.30;10.90;;;;;;;;;;5040918;28;20426;-80
2022/04/14 07:39:02;;;;;;;16.83;10.40;;;;;;;;;;5012478;28;20501;-80
2022/04/14 07:41:28;;;;;;;17.80;11.40;;;;;;;;;;5022743;28;20423;-80
2022/04/14 07:43:55;;;;;;;14.13;9.97;;;;;;;;;;5023875;28;20504;-81
2022/04/14 07:46:21;;;;;;;15.13;9.63;;;;;;;;;;5035857;28;20446;-80
2022/04/14 07:48:47;;;;;;;15.73;9.30;;;;;;;;;;5042991;28;20454;-80
2022/04/14 07:51:13;;;;;;;15.80;12.60;;;;;;;;;;5037780;28;20426;-80
2022/04/14 07:53:43;;;;;;;15.27;10.43;;;;;;;;;;5023524;28;20430;-81
2022/04/14 07:56:09;;;;;;;16.00;10.43;;;;;;;;;;5018942;28;20427;-80
2022/04/14 07:58:38;;;;;;;17.07;9.80;;;;;;;;;;5021787;28;20458;-80
2022/04/14 08:01:04;;;;;;;15.53;10.40;;;;;;;;;;5031694;28;20450;-79
2022/04/14 08:03:32;;;;;;;12.97;9.90;;;;;;;;;;5028067;28;20423;-80
2022/04/14 08:05:58;;;;;;;20.97;10.20;;;;;;;;;;5027690;28;20451;-80
2022/04/14 08:08:24;;;;;;;16.27;9.83;;;;;;;;;;5028301;28;20447;-80
2022/04/14 08:10:51;;;;;;;18.13;10.67;;;;;;;;;;5007576;28;20447;-79
2022/04/14 08:13:17;;;;;;;15.30;10.63;;;;;;;;;;5022921;28;20415;-78
2022/04/14 08:15:44;;;;;;;15.87;10.53;;;;;;;;;;5024524;28;20808;-81
2022/04/14 08:18:10;;;;;;;16.00;10.73;;;;;;;;;;5035088;28;20443;-82
2022/04/14 08:20:39;;;;;;;18.73;12.00;;;;;;;;;;5034270;28;20549;-80
2022/04/14 08:23:05;;;;;;;15.23;9.90;;;;;;;;;;5033218;28;20477;-80
2022/04/14 08:25:32;;;;;;;16.40;10.93;;;;;;;;;;5032801;28;20450;-82
2022/04/14 08:27:59;;;;;;;16.23;12.43;;;;;;;;;;5023168;28;20415;-81
2022/04/14 08:30:26;;;;;;;17.10;12.00;;;;;;;;;;5005041;28;20487;-81
2022/04/14 08:32:54;;;;;;;19.47;12.67;;;;;;;;;;5032048;28;20855;-81
2022/04/14 08:35:21;;;;;;;19.40;11.73;;;;;;;;;;5025988;28;20423;-82
2022/04/14 08:37:47;;;;;;;17.97;11.10;;;;;;;;;;5034472;28;20434;-81
2022/04/14 08:40:15;;;;;;;17.07;11.30;;;;;;;;;;5028822;28;20439;-82
2022/04/14 08:42:41;;;;;;;17.90;10.87;;;;;;;;;;5041626;28;20786;-80
2022/04/14 08:45:09;;;;;;;21.23;10.70;;;;;;;;;;5023074;28;20526;-79
2022/04/14 08:47:36;;;;;;;15.60;11.40;;;;;;;;;;5032609;28;20492;-81
2022/04/14 08:50:25;;;;;;;13.30;9.77;;;;;;;;;;5030497;28;20511;-80
2022/04/14 08:52:51;;;;;;;17.30;10.97;;;;;;;;;;5029008;28;20423;-81
2022/04/14 08:55:18;;;;;;;16.53;11.57;;;;;;;;;;5025040;28;20423;-80
2022/04/14 08:57:44;;;;;;;18.53;11.33;;;;;;;;;;5023589;28;20506;-80
2022/04/14 09:00:12;;;;;;;21.40;12.00;;;;;;;;;;5022617;28;20447;-81
2022/04/14 09:02:38;;;;;;;17.80;10.43;;;;;;;;;;5009953;28;20427;-81
2022/04/14 09:05:05;;;;;;;17.50;11.07;;;;;;;;;;5021883;28;20963;-80
2022/04/14 09:07:33;;;;;;;16.37;10.27;;;;;;;;;;5035157;28;20480;-81
2022/04/14 09:09:59;;;;;;;15.47;10.00;;;;;;;;;;5021663;28;20462;-81
2022/04/14 09:12:25;;;;;;;16.20;9.93;;;;;;;;;;5009482;28;20932;-80
2022/04/14 09:14:51;;;;;;;20.70;11.47;;;;;;;;;;5020750;28;20466;-81
2022/04/14 09:17:17;;;;;;;14.47;9.70;;;;;;;;;;5030409;28;20423;-82
2022/04/14 09:19:43;;;;;;;18.07;9.50;;;;;;;;;;5021236;28;20453;-81
2022/04/14 09:22:11;;;;;;;19.73;11.20;;;;;;;;;;5020769;28;20434;-80
2022/04/14 09:24:49;;;;;;;15.30;10.17;;;;;;;;;;5021630;28;20974;-81
2022/04/14 09:27:32;;;;;;;14.00;9.90;;;;;;;;;;5021531;28;20415;-81
2022/04/14 09:30:03;;;;;;;14.47;8.87;;;;;;;;;;5024696;28;20513;-79
2022/04/14 09:32:36;;;;;;;15.50;10.03;;;;;;;;;;5004979;28;20812;-81
2022/04/14 09:35:06;;;;;;;14.87;10.50;;;;;;;;;;5022698;28;20446;-81
2022/04/14 09:37:33;;;;;;;14.07;9.73;;;;;;;;;;5022985;28;20774;-80
2022/04/14 09:40:02;;;;;;;15.30;9.80;;;;;;;;;;5027199;28;20461;-80
2022/04/14 09:42:31;;;;;;;15.50;8.73;;;;;;;;;;5028473;28;20426;-81
2022/04/14 09:45:18;;;;;;;14.40;10.27;;;;;;;;;;5008464;28;20512;-81
2022/04/14 09:47:44;;;;;;;18.40;10.07;;;;;;;;;;5028164;28;20793;-80
2022/04/14 09:50:39;;;;;;;13.10;9.87;;;;;;;;;;5022892;28;20765;-81
2022/04/14 09:53:12;;;;;;;11.23;9.33;;;;;;;;;;5019439;28;20912;-81
2022/04/14 09:55:39;;;;;;;12.40;9.00;;;;;;;;;;5026355;28;20514;-80
2022/04/14 09:58:06;;;;;;;14.83;8.23;;;;;;;;;;5028438;28;20458;-82
2022/04/14 10:00:38;;;;;;;14.50;8.57;;;;;;;;;;5035827;28;24101;-81
2022/04/14 10:03:19;;;;;;;11.73;8.30;;;;;;;;;;5024799;28;20434;-81
2022/04/14 10:05:46;;;;;;;16.10;11.87;;;;;;;;;;5032025;28;20459;-80
2022/04/14 10:08:13;;;;;;;12.50;8.47;;;;;;;;;;5021969;28;20446;-80
2022/04/14 10:10:40;;;;;;;15.20;8.80;;;;;;;;;;5022872;28;20427;-80
2022/04/14 10:13:11;;;;;;;12.63;8.60;;;;;;;;;;5010394;28;20462;-81
2022/04/14 10:15:38;;;;;;;14.00;9.33;;;;;;;;;;5010000;28;20427;-80
2022/04/14 10:18:06;;;;;;;12.47;8.50;;;;;;;;;;5022928;28;20454;-80
2022/04/14 10:20:35;;;;;;;13.83;8.87;;;;;;;;;;5036280;28;20425;-80
2022/04/14 10:23:01;;;;;;;15.20;8.77;;;;;;;;;;5034164;28;20503;-80
2022/04/14 10:25:28;;;;;;;12.60;7.93;;;;;;;;;;5022383;28;20462;-80
2022/04/14 10:27:56;;;;;;;13.50;9.57;;;;;;;;;;5025406;28;20411;-81
2022/04/14 10:30:23;;;;;;;12.87;9.40;;;;;;;;;;5002915;28;20916;-80
2022/04/14 10:32:50;;;;;;;11.73;8.87;;;;;;;;;;5034441;28;20449;-79
2022/04/14 10:35:16;;;;;;;12.67;7.83;;;;;;;;;;5015858;28;20412;-80
2022/04/14 10:37:44;;;;;;;12.80;8.40;;;;;;;;;;5021343;28;20410;-80
2022/04/14 10:40:10;;;;;;;10.10;7.83;;;;;;;;;;5025009;28;20659;-80
2022/04/14 10:42:37;;;;;;;9.20;7.87;;;;;;;;;;5004764;28;20431;-80
2022/04/14 10:45:23;;;;;;;11.07;7.17;;;;;;;;;;5027681;28;20446;-78
2022/04/14 10:47:59;;;;;;;12.87;7.57;;;;;;;;;;5027460;28;20444;-80
2022/04/14 10:50:31;;;;;;;9.70;6.80;;;;;;;;;;5030156;28;20410;-80
2022/04/14 10:53:00;;;;;;;14.20;8.20;;;;;;;;;;5042538;28;20407;-81
2022/04/14 10:55:35;;;;;;;10.60;7.93;;;;;;;;;;5040385;28;20445;-81
2022/04/14 10:58:27;;;;;;;9.20;6.73;;;;;;;;;;5069876;22;20484;-83
2022/04/14 11:01:05;;;;;;;11.33;8.10;;;;;;;;;;5040596;28;20414;-88
2022/04/14 11:03:55;;;;;;;11.63;8.00;;;;;;;;;;5041365;28;20382;-88
2022/04/14 11:06:42;;;;;;;10.73;7.90;;;;;;;;;;5022908;28;20457;-88
2022/04/14 11:09:08;;;;;;;11.17;7.90;;;;;;;;;;5049020;28;20410;-88
2022/04/14 11:12:07;;;;;;;11.17;8.70;;;;;;;;;;5026641;28;20395;-88
2022/04/14 11:14:45;;;;;;;11.83;8.30;;;;;;;;;;5013146;28;20403;-86
2022/04/14 11:17:30;;;;;;;11.47;7.60;;;;;;;;;;5036016;28;20407;-86
2022/04/14 11:20:34;;;;;;;12.33;7.30;;;;;;;;;;5036270;28;20394;-87
2022/04/14 11:23:12;;;;;;;11.47;8.90;;;;;;;;;;5006760;28;20773;-87
2022/04/14 11:25:49;;;;;;;13.07;7.83;;;;;;;;;;5019728;28;20462;-87
2022/04/14 11:28:31;;;;;;;12.27;6.80;;;;;;;;;;5038455;28;20488;-87
2022/04/14 11:34:09;;;;;;;11.40;6.93;;;;;;;;;;5037409;28;20466;-84
2022/04/14 11:36:46;;;;;;;7.30;5.73;;;;;;;;;;5038882;28;20417;-87
2022/04/14 11:39:42;;;;;;;9.43;6.03;;;;;;;;;;5039663;28;20406;-89
2022/04/14 11:42:19;;;;;;;8.80;6.37;;;;;;;;;;5037808;28;20403;-88
2022/04/14 11:45:07;;;;;;;8.77;5.87;;;;;;;;;;5023058;28;20462;-88
2022/04/14 11:47:51;;;;;;;7.90;5.50;;;;;;;;;;5021765;28;20430;-89
2022/04/14 11:53:36;;;;;;;12.70;7.97;;;;;;;;;;5039800;28;20460;-88
2022/04/14 11:56:23;;;;;;;12.93;7.77;;;;;;;;;;5023774;28;20406;-89
2022/04/14 11:59:46;;;;;;;10.63;6.43;;;;;;;;;;5026522;28;20532;-89
2022/04/14 12:02:38;;;;;;;7.53;5.67;;;;;;;;;;4969904;28;20445;-88
2022/04/14 12:08:39;;;;;;;7.70;6.37;;;;;;;;;;5048376;28;20481;-87
2022/04/14 12:11:26;;;;;;;10.77;6.83;;;;;;;;;;4950950;29;20417;-85
2022/04/14 12:13:54;;;;;;;7.87;6.23;;;;;;;;;;4943971;29;20418;-85
2022/04/14 12:16:33;;;;;;;12.30;6.40;;;;;;;;;;4941494;29;20773;-86
2022/04/14 12:19:41;;;;;;;;;;;;;;;;;;;;;
2022/04/14 12:22:27;;;;;;;7.90;6.27;;;;;;;;;;5038631;28;20505;-86
2022/04/14 12:25:45;;;;;;;;;;;;;;;;;;;;;
2022/04/14 12:41:49;;;;;;;;;;;;;;;;;;;;;
2022/04/14 12:45:01;;;;;;;8.83;6.47;;;;;;;;;;5063449;28;20473;-86
2022/04/14 12:47:39;;;;;;;11.73;7.60;;;;;;;;;;5040812;28;20976;-86
2022/04/14 12:53:50;;;;;;;10.83;7.20;;;;;;;;;;5016953;28;20418;-87
2022/04/14 13:06:22;;;;;;;;;;;;;;;;;;;;;
2022/04/14 13:09:16;;;;;;;;;;;;;;;;;;;;;
2022/04/14 13:11:52;;;;;;;9.60;7.60;;;;;;;;;;4961658;29;20505;-89
2022/04/14 13:15:12;;;;;;;;;;;;;;;;;;;;;
2022/04/14 13:25:29;;;;;;;8.80;5.30;;;;;;;;;;4672991;26;20476;-87
2022/04/14 13:28:01;;;;;;;9.27;5.30;;;;;;;;;;5059505;28;20437;-87
2022/04/14 13:30:27;;;;;;;8.00;4.70;;;;;;;;;;5047318;28;20409;-88
2022/04/14 13:32:54;;;;;;;6.43;4.40;;;;;;;;;;5065056;28;20817;-88
2022/04/14 13:35:20;;;;;;;11.80;6.07;;;;;;;;;;5046742;28;20436;-89
2022/04/14 13:37:46;;;;;;;9.63;5.20;;;;;;;;;;5064817;28;20524;-89
2022/04/14 13:40:53;;;;;;;9.70;4.47;;;;;;;;;;5064208;28;20431;-87
2022/04/14 13:43:27;;;;;;;10.23;5.20;;;;;;;;;;4990165;28;20549;-83
2022/04/14 13:45:53;;;;;;;7.93;5.07;;;;;;;;;;5069317;28;20230;-89
2022/04/14 13:48:28;;;;;;;6.70;4.23;;;;;;;;;;5068218;28;20505;-88
2022/04/14 13:50:59;;;;;;;5.77;4.40;;;;;;;;;;5065725;28;21220;-89
2022/04/14 13:53:34;;;;;;;10.90;5.20;;;;;;;;;;5064895;28;20409;-89
2022/04/14 13:56:00;;;;;;;7.60;4.20;;;;;;;;;;5062691;28;20998;-89
2022/04/14 13:58:33;;;;;;;8.05;5.60;;;;;;;;;;5041186;28;20415;-88
2022/04/14 14:01:24;;;;;;;8.17;5.73;;;;;;;;;;5053020;28;20185;-89
2022/04/14 14:07:12;;;;;;;8.73;5.63;;;;;;;;;;5048970;28;20406;-85
2022/04/14 14:09:56;;;;;;;10.13;6.60;;;;;;;;;;5017674;28;20454;-86
2022/04/14 14:12:36;;;;;;;10.07;7.43;;;;;;;;;;5045988;28;20408;-86
2022/04/14 14:15:11;;;;;;;7.63;6.83;;;;;;;;;;5046085;28;20908;-86
2022/04/14 14:17:43;;;;;;;11.60;8.90;;;;;;;;;;5044698;28;20425;-87
2022/04/14 14:20:19;;;;;;;13.57;8.63;;;;;;;;;;5045065;28;20406;-86
2022/04/14 14:23:00;;;;;;;;;;;;;;;;;;;;;
2022/04/14 14:26:04;;;;;;;13.73;7.03;;;;;;;;;;5040460;28;20548;-87
2022/04/14 14:32:00;;;;;;;9.33;7.67;;;;;;;;;;5027601;28;20676;-88
2022/04/14 14:34:55;;;;;;;;;;;;;;;;;;;;;
2022/04/14 14:37:40;;;;;;;11.43;7.80;;;;;;;;;;5060533;28;20492;-86
2022/04/14 14:40:23;;;;;;;9.20;6.73;;;;;;;;;;5062024;28;20410;-86
2022/04/14 14:43:26;;;;;;;10.90;7.00;;;;;;;;;;5042207;28;20410;-84
2022/04/14 14:46:07;;;;;;;9.70;6.83;;;;;;;;;;5056497;28;20522;-84
2022/04/14 14:48:55;;;;;;;;;;;;;;;;;;;;;
2022/04/14 14:51:32;;;;;;;8.00;6.70;;;;;;;;;;5057036;28;20489;-86
2022/04/14 14:54:02;;;;;;;9.63;7.30;;;;;;;;;;5040851;28;20413;-85
2022/04/14 14:56:49;;;;;;;7.70;6.30;;;;;;;;;;5040885;28;20944;-86
2022/04/14 14:59:44;;;;;;;9.63;6.10;;;;;;;;;;5042243;28;20468;-87
2022/04/14 15:02:34;;;;;;;9.30;6.40;;;;;;;;;;5062414;28;20448;-86
2022/04/14 15:05:23;;;;;;;8.73;5.50;;;;;;;;;;5067563;28;20453;-87
2022/04/14 15:10:43;;;;;;;8.53;5.47;;;;;;;;;;5036739;28;20553;-87
2022/04/14 15:16:14;;;;;;;9.53;5.33;;;;;;;;;;5073433;28;20409;-87
2022/04/14 15:21:53;;;;;;;5.80;4.50;;;;;;;;;;5060799;28;20410;-88
2022/04/14 15:24:38;;;;;;;11.00;5.10;;;;;;;;;;5042650;28;20453;-87
2022/04/14 15:30:23;;;;;;;;;;;;;;;;;;;;;
2022/04/14 15:33:34;;;;;;;9.30;4.90;;;;;;;;;;5008777;28;20489;-86
2022/04/14 15:39:55;;;;;;;14.77;5.87;;;;;;;;;;4979722;28;20487;-86
2022/04/14 15:42:28;;;;;;;7.10;4.07;;;;;;;;;;5055324;28;20410;-86
2022/04/14 15:51:12;;;;;;;9.40;4.73;;;;;;;;;;5059445;28;21023;-87
2022/04/14 15:56:45;;;;;;;10.70;4.00;;;;;;;;;;5059699;28;20481;-85
2022/04/14 15:59:13;;;;;;;11.17;5.00;;;;;;;;;;5042299;28;20460;-86
2022/04/14 16:02:14;;;;;;;6.60;3.57;;;;;;;;;;5042398;28;20417;-85
2022/04/14 16:05:17;;;;;;;;;;;;;;;;;;;;;
2022/04/14 16:08:03;;;;;;;11.00;5.40;;;;;;;;;;4998057;28;20503;-85
2022/04/14 16:13:41;;;;;;;6.50;3.80;;;;;;;;;;5014252;28;20424;-86